Time;durP1;ratioP1;P1;durP2;ratioP2;P2;SDS_P1;SDS_P2;PMS_P1;PMS_P2;Temp;Humidity;BMP_temperature;BMP_pressure;BME280_temperature;BME280_humidity;BME280_pressure;Samples;Min_cycle;Max_cycle;Signal;HPM_P1;HPM_P2
2022/11/29 00:00:57;;;;;;;5.18;3.90;;;14.50;70.40;;;;;;5124289;28;20023;-67
2022/11/29 00:03:23;;;;;;;4.72;3.80;;;14.50;70.40;;;;;;5124221;28;20019;-68
2022/11/29 00:05:50;;;;;;;6.22;4.03;;;14.40;70.40;;;;;;5124186;28;20049;-68
2022/11/29 00:08:17;;;;;;;4.97;3.72;;;14.40;70.30;;;;;;5124134;28;20050;-67
2022/11/29 00:10:43;;;;;;;4.97;3.47;;;14.40;70.30;;;;;;5124040;28;20015;-68
2022/11/29 00:13:09;;;;;;;6.40;4.60;;;14.50;70.40;;;;;;5140061;27;20323;-67
2022/11/29 00:15:38;;;;;;;6.43;4.03;;;14.40;70.40;;;;;;5124037;28;20347;-67
2022/11/29 00:18:05;;;;;;;5.18;4.10;;;14.40;70.60;;;;;;5124019;28;20337;-68
2022/11/29 00:20:32;;;;;;;4.68;3.58;;;14.40;70.80;;;;;;5123922;28;20028;-67
2022/11/29 00:22:58;;;;;;;5.88;4.00;;;14.40;70.70;;;;;;5123873;28;20325;-67
2022/11/29 00:25:25;;;;;;;5.10;3.70;;;14.40;70.70;;;;;;5123805;28;20068;-68
2022/11/29 00:27:50;;;;;;;6.18;4.07;;;14.40;70.70;;;;;;5123775;28;20294;-68
2022/11/29 00:30:18;;;;;;;6.03;4.53;;;14.40;70.80;;;;;;5123738;28;20334;-67
2022/11/29 00:32:43;;;;;;;5.30;3.53;;;14.40;70.70;;;;;;5123562;28;20030;-68
2022/11/29 00:35:09;;;;;;;4.57;3.80;;;14.40;70.80;;;;;;5123561;28;20211;-68
2022/11/29 00:37:35;;;;;;;4.80;3.97;;;14.40;70.80;;;;;;5123554;28;20379;-68
2022/11/29 00:40:02;;;;;;;4.75;3.83;;;14.40;70.90;;;;;;5123496;28;20015;-68
2022/11/29 00:42:28;;;;;;;5.13;3.47;;;14.40;71.00;;;;;;5123291;28;20066;-68
2022/11/29 00:44:53;;;;;;;5.18;3.53;;;14.40;70.90;;;;;;5123490;28;20225;-68
2022/11/29 00:47:19;;;;;;;5.75;3.92;;;14.40;70.80;;;;;;5123414;28;20027;-68
2022/11/29 00:49:45;;;;;;;5.78;4.28;;;14.40;70.70;;;;;;5123352;28;20030;-68
2022/11/29 00:52:11;;;;;;;5.75;3.75;;;14.40;70.70;;;;;;5123162;28;20035;-67
2022/11/29 00:54:36;;;;;;;4.80;4.00;;;14.40;70.70;;;;;;5123281;28;20050;-68
2022/11/29 00:57:02;;;;;;;5.63;3.85;;;14.40;70.60;;;;;;5123326;28;20023;-67
2022/11/29 00:59:29;;;;;;;5.85;4.07;;;14.40;70.60;;;;;;5123253;28;20025;-67
2022/11/29 01:01:55;;;;;;;5.50;4.13;;;14.50;70.50;;;;;;5123203;28;20020;-68
2022/11/29 01:04:20;;;;;;;5.15;3.83;;;14.40;70.40;;;;;;5123151;28;20049;-67
2022/11/29 01:06:50;;;;;;;5.03;3.75;;;14.50;70.40;;;;;;5123068;28;20046;-68
2022/11/29 01:09:15;;;;;;;5.22;3.88;;;14.40;70.40;;;;;;5123020;28;20210;-68
2022/11/29 01:11:41;;;;;;;5.70;3.95;;;14.50;70.30;;;;;;5122981;28;20050;-68
2022/11/29 01:14:07;;;;;;;5.22;4.00;;;14.50;70.30;;;;;;5122965;28;20073;-67
2022/11/29 01:16:33;;;;;;;6.82;4.75;;;14.50;70.30;;;;;;5122896;28;20088;-68
2022/11/29 01:18:59;;;;;;;4.80;3.53;;;14.50;70.30;;;;;;5122403;28;20046;-68
2022/11/29 01:21:25;;;;;;;5.93;4.40;;;14.40;70.10;;;;;;5122862;28;20015;-68
2022/11/29 01:23:52;;;;;;;7.50;4.22;;;14.40;70.20;;;;;;5104658;28;20051;-68
2022/11/29 01:26:23;;;;;;;5.03;3.75;;;14.40;70.20;;;;;;5122743;28;20087;-67
2022/11/29 01:28:51;;;;;;;5.70;3.70;;;14.40;70.40;;;;;;5122797;28;20019;-68
2022/11/29 01:31:27;;;;;;;6.20;4.20;;;14.40;70.60;;;;;;5122615;28;20015;-68
2022/11/29 01:34:00;;;;;;;4.88;3.90;;;14.40;70.60;;;;;;5122373;28;20028;-69
2022/11/29 01:36:27;;;;;;;6.57;4.97;;;14.40;70.60;;;;;;5122664;28;20258;-68
2022/11/29 01:38:53;;;;;;;4.50;3.50;;;14.40;70.60;;;;;;5122633;28;20019;-67
2022/11/29 01:41:22;;;;;;;5.35;3.65;;;14.40;70.70;;;;;;5122390;28;20047;-68
2022/11/29 01:43:57;;;;;;;;;;;14.40;70.80;;;;;;5122995;28;20072;-67
2022/11/29 01:46:23;;;;;;;6.13;4.03;;;14.40;70.80;;;;;;5122518;28;19907;-67
2022/11/29 01:48:52;;;;;;;4.93;3.88;;;14.40;71.00;;;;;;5122560;28;20024;-68
2022/11/29 01:51:18;;;;;;;3.92;3.35;;;14.30;71.00;;;;;;5122399;28;20586;-67
2022/11/29 01:53:44;;;;;;;6.03;4.38;;;14.30;71.00;;;;;;5122459;28;20319;-68
2022/11/29 01:56:13;;;;;;;4.75;3.42;;;14.40;71.00;;;;;;5122395;28;20012;-67
2022/11/29 01:58:39;;;;;;;;;;;14.30;70.80;;;;;;5122824;28;20043;-68
2022/11/29 02:01:05;;;;;;;5.03;3.63;;;14.40;70.80;;;;;;5122375;28;19957;-68
2022/11/29 02:03:31;;;;;;;5.43;4.18;;;14.40;70.90;;;;;;5122346;28;20105;-67
2022/11/29 02:05:57;;;;;;;5.22;4.13;;;14.40;70.70;;;;;;5122268;28;20042;-68
2022/11/29 02:08:30;;;;;;;6.25;4.38;;;14.40;70.60;;;;;;5122339;28;20082;-67
2022/11/29 02:11:08;;;;;;;5.00;3.92;;;14.40;70.60;;;;;;5122070;28;20027;-68
2022/11/29 02:13:50;;;;;;;5.95;4.30;;;14.40;70.40;;;;;;5122251;28;20028;-67
2022/11/29 02:16:49;;;;;;;4.97;3.83;;;14.40;70.30;;;;;;5122242;28;20078;-69
2022/11/29 02:19:52;;;;;;;5.18;3.78;;;14.50;70.30;;;;;;5122250;28;20015;-68
2022/11/29 02:22:22;;;;;;;5.90;4.03;;;14.40;70.20;;;;;;5122219;28;20233;-67
2022/11/29 02:25:13;;;;;;;5.10;4.05;;;14.50;70.20;;;;;;5122140;28;20015;-68
2022/11/29 02:27:41;;;;;;;6.50;4.32;;;14.50;70.10;;;;;;5122186;28;20549;-69
2022/11/29 02:30:34;;;;;;;4.72;4.03;;;14.50;70.20;;;;;;5123072;28;20023;-69
2022/11/29 02:33:23;;;;;;;5.35;4.15;;;14.40;70.10;;;;;;5126002;28;20021;-66
2022/11/29 02:35:59;;;;;;;4.55;3.65;;;14.50;70.10;;;;;;5125961;28;20049;-67
2022/11/29 02:38:44;;;;;;;4.95;4.07;;;14.50;70.90;;;;;;5125991;28;20101;-67
2022/11/29 02:41:34;;;;;;;4.95;4.03;;;14.40;70.50;;;;;;5125792;28;20051;-68
2022/11/29 02:44:25;;;;;;;4.95;3.72;;;14.40;70.50;;;;;;5125903;28;20047;-67
2022/11/29 02:47:25;;;;;;;4.55;3.72;;;14.40;70.40;;;;;;5125824;28;20099;-68
2022/11/29 02:50:17;;;;;;;5.32;3.47;;;14.30;70.40;;;;;;5125759;28;20019;-68
2022/11/29 02:52:58;;;;;;;5.07;3.67;;;14.40;70.60;;;;;;5125609;28;20077;-68
2022/11/29 02:55:50;;;;;;;6.10;4.28;;;14.30;70.50;;;;;;5125681;28;20020;-67
2022/11/29 02:58:36;;;;;;;5.13;4.00;;;14.40;70.70;;;;;;5125543;28;20020;-66
2022/11/29 03:01:12;;;;;;;5.63;4.07;;;14.40;70.70;;;;;;5124953;28;20070;-68
2022/11/29 03:03:43;;;;;;;6.15;4.30;;;14.30;70.70;;;;;;5107228;28;20218;-68
2022/11/29 03:06:37;;;;;;;5.30;3.88;;;14.30;70.80;;;;;;5125435;28;20053;-67
2022/11/29 03:09:31;;;;;;;4.82;3.58;;;14.30;70.70;;;;;;5125440;28;20106;-68
2022/11/29 03:11:59;;;;;;;5.13;4.28;;;14.30;70.60;;;;;;5125276;28;20307;-67
2022/11/29 03:14:39;;;;;;;4.35;3.22;;;14.30;70.70;;;;;;5125326;28;20314;-68
2022/11/29 03:17:24;;;;;;;5.18;4.03;;;14.40;70.70;;;;;;5125307;28;20326;-67
2022/11/29 03:20:06;;;;;;;4.97;3.67;;;14.40;70.50;;;;;;5125165;28;20303;-67
2022/11/29 03:22:47;;;;;;;5.68;3.95;;;14.40;70.60;;;;;;5125178;28;20094;-67
2022/11/29 03:25:22;;;;;;;5.55;4.53;;;14.40;70.50;;;;;;5125074;28;20054;-67
2022/11/29 03:27:57;;;;;;;4.95;3.95;;;14.40;70.40;;;;;;5124931;28;20023;-68
2022/11/29 03:30:23;;;;;;;5.68;3.90;;;14.40;70.40;;;;;;5124994;28;20211;-68
2022/11/29 03:32:51;;;;;;;5.57;4.25;;;14.40;70.40;;;;;;5124787;28;20414;-68
2022/11/29 03:35:26;;;;;;;5.35;4.38;;;14.40;70.30;;;;;;5124861;28;20052;-68
2022/11/29 03:38:10;;;;;;;4.53;3.95;;;14.40;70.30;;;;;;5124857;28;20024;-69
2022/11/29 03:41:09;;;;;;;5.53;3.92;;;14.40;70.30;;;;;;5124123;28;20043;-68
2022/11/29 03:44:08;;;;;;;4.53;3.53;;;14.40;70.20;;;;;;5124676;28;20011;-67
2022/11/29 03:46:55;;;;;;;4.38;3.70;;;14.40;70.10;;;;;;5097763;28;20033;-67
2022/11/29 03:49:27;;;;;;;5.35;4.03;;;14.40;70.40;;;;;;5124532;28;20016;-67
2022/11/29 03:52:17;;;;;;;5.50;3.90;;;14.40;70.60;;;;;;5124409;28;20311;-68
2022/11/29 03:55:04;;;;;;;4.30;3.55;;;14.30;70.70;;;;;;5124443;28;20326;-67
2022/11/29 03:57:55;;;;;;;5.80;4.03;;;14.30;70.60;;;;;;5124431;28;20064;-67
2022/11/29 04:00:22;;;;;;;4.47;3.28;;;14.30;70.60;;;;;;5085857;28;20042;-67
2022/11/29 04:03:00;;;;;;;4.30;3.60;;;14.30;70.80;;;;;;5124309;28;20100;-68
2022/11/29 04:05:56;;;;;;;5.40;3.97;;;14.30;70.60;;;;;;5124523;28;20024;-68
2022/11/29 04:09:03;;;;;;;4.75;3.85;;;14.40;70.60;;;;;;5124225;28;20031;-67
2022/11/29 04:11:59;;;;;;;4.95;4.00;;;14.40;70.60;;;;;;5124003;28;20027;-67
2022/11/29 04:14:46;;;;;;;6.15;4.15;;;14.30;70.70;;;;;;5124064;28;20128;-67
2022/11/29 04:17:36;;;;;;;4.55;3.58;;;14.30;70.80;;;;;;5123999;28;20073;-67
2022/11/29 04:20:16;;;;;;;5.00;3.60;;;14.30;70.80;;;;;;5123991;28;20027;-68
2022/11/29 04:22:56;;;;;;;5.28;4.10;;;14.30;70.60;;;;;;5123861;28;20019;-67
2022/11/29 04:26:02;;;;;;;5.70;4.18;;;14.40;70.60;;;;;;5123889;28;20030;-68
2022/11/29 04:28:53;;;;;;;4.85;3.83;;;14.40;70.50;;;;;;5123689;28;20020;-68
2022/11/29 04:31:57;;;;;;;3.78;3.25;;;14.40;70.30;;;;;;5123646;28;20092;-68
2022/11/29 04:34:32;;;;;;;4.43;3.25;;;14.40;70.20;;;;;;5123667;28;20023;-67
2022/11/29 04:36:57;;;;;;;5.03;4.10;;;14.40;70.10;;;;;;5123610;28;20327;-67
2022/11/29 04:40:01;;;;;;;4.47;3.60;;;14.40;69.90;;;;;;5123538;28;20039;-68
2022/11/29 04:42:39;;;;;;;5.10;3.90;;;14.50;70.00;;;;;;5078153;28;20092;-68
2022/11/29 04:45:42;;;;;;;4.47;3.53;;;14.40;70.00;;;;;;5123617;28;20023;-67
2022/11/29 04:48:35;;;;;;;4.53;3.47;;;14.40;69.90;;;;;;5123471;28;20011;-67
2022/11/29 04:51:07;;;;;;;5.28;4.15;;;14.40;69.80;;;;;;5123312;28;20364;-67
2022/11/29 04:54:08;;;;;;;4.20;3.65;;;14.40;69.90;;;;;;5122602;28;20050;-66
2022/11/29 04:56:57;;;;;;;5.22;4.07;;;14.40;69.80;;;;;;5123324;28;20027;-69
2022/11/29 04:59:35;;;;;;;4.38;3.35;;;14.40;70.00;;;;;;5123252;28;20080;-67
2022/11/29 05:02:41;;;;;;;3.93;3.53;;;14.40;70.20;;;;;;5123244;28;20237;-68
2022/11/29 05:05:37;;;;;;;4.88;3.78;;;14.30;70.40;;;;;;5123132;28;20012;-67
2022/11/29 05:08:20;;;;;;;3.97;3.08;;;14.30;70.70;;;;;;5123101;28;20073;-67
2022/11/29 05:11:13;;;;;;;3.92;3.50;;;14.30;70.60;;;;;;5123006;28;20065;-68
2022/11/29 05:13:57;;;;;;;5.82;4.05;;;14.30;70.60;;;;;;5122984;28;20019;-68
2022/11/29 05:16:45;;;;;;;4.13;3.55;;;14.30;70.70;;;;;;5123008;28;20031;-66
2022/11/29 05:19:28;;;;;;;4.72;3.53;;;14.30;70.50;;;;;;5122894;28;20014;-69
2022/11/29 05:22:19;;;;;;;4.47;3.60;;;14.30;70.60;;;;;;5122835;28;20026;-67
2022/11/29 05:25:21;;;;;;;5.25;3.80;;;14.30;70.80;;;;;;5122758;28;20015;-69
2022/11/29 05:28:37;;;;;;;5.20;3.83;;;14.30;70.70;;;;;;5122969;28;20237;-67
2022/11/29 05:31:27;;;;;;;5.50;3.58;;;14.30;70.60;;;;;;5116609;28;20029;-67
2022/11/29 05:34:24;;;;;;;6.28;3.72;;;14.30;70.50;;;;;;5122770;28;20072;-67
2022/11/29 05:37:11;;;;;;;5.85;3.75;;;14.40;70.40;;;;;;5122630;28;20058;-66
2022/11/29 05:40:14;;;;;;;4.95;3.60;;;14.40;70.40;;;;;;5122656;28;20020;-68
2022/11/29 05:43:10;;;;;;;4.82;3.58;;;14.40;70.30;;;;;;5122446;28;20061;-68
2022/11/29 05:46:15;;;;;;;4.43;3.63;;;14.40;70.00;;;;;;5122520;28;20042;-67
2022/11/29 05:48:59;;;;;;;4.55;3.67;;;14.40;70.00;;;;;;5049678;28;20029;-69
2022/11/29 05:51:49;;;;;;;5.13;3.60;;;14.40;69.90;;;;;;5122325;28;20027;-68
2022/11/29 05:54:30;;;;;;;5.13;3.92;;;14.40;69.90;;;;;;5122521;28;20012;-67
2022/11/29 05:57:07;;;;;;;4.78;3.22;;;14.40;69.80;;;;;;5122423;28;20078;-68
2022/11/29 05:59:37;;;;;;;4.22;3.55;;;14.40;69.80;;;;;;5122420;28;20019;-68
2022/11/29 06:02:31;;;;;;;4.35;3.75;;;14.40;69.70;;;;;;5122295;28;20019;-68
2022/11/29 06:05:32;;;;;;;4.38;3.42;;;14.40;69.60;;;;;;5124798;28;20011;-68
2022/11/29 06:08:06;;;;;;;6.10;4.35;;;14.40;69.60;;;;;;5126568;28;20079;-68
2022/11/29 06:10:40;;;;;;;4.75;3.55;;;14.40;69.80;;;;;;5126607;28;20307;-68
2022/11/29 06:13:35;;;;;;;4.45;3.42;;;14.40;69.90;;;;;;5126280;28;20015;-67
2022/11/29 06:16:16;;;;;;;5.10;3.80;;;14.30;70.40;;;;;;5126408;28;20012;-68
2022/11/29 06:18:45;;;;;;;4.47;3.45;;;14.20;70.50;;;;;;5126366;28;20019;-67
2022/11/29 06:21:21;;;;;;;5.90;3.72;;;14.30;70.30;;;;;;5126197;28;20045;-68
2022/11/29 06:24:01;;;;;;;4.35;3.17;;;14.20;70.40;;;;;;5126153;28;20020;-67
2022/11/29 06:27:06;;;;;;;5.38;3.83;;;14.30;70.40;;;;;;5126257;28;20023;-68
2022/11/29 06:29:37;;;;;;;5.40;3.78;;;14.30;70.20;;;;;;5122461;28;20035;-67
2022/11/29 06:32:19;;;;;;;4.95;3.40;;;14.30;70.30;;;;;;5126033;28;20038;-68
2022/11/29 06:34:58;;;;;;;3.80;3.05;;;14.30;70.40;;;;;;5126091;28;20047;-68
2022/11/29 06:37:32;;;;;;;3.80;3.10;;;14.30;70.50;;;;;;5125954;28;20019;-69
2022/11/29 06:39:58;;;;;;;3.95;3.40;;;14.30;70.50;;;;;;5125931;28;20027;-68
2022/11/29 06:42:24;;;;;;;4.78;3.63;;;14.30;70.40;;;;;;5125725;28;20221;-68
2022/11/29 06:44:50;;;;;;;5.68;4.20;;;14.30;70.30;;;;;;5125780;28;20090;-67
2022/11/29 06:47:29;;;;;;;3.67;3.17;;;14.30;70.40;;;;;;5125747;28;20015;-68
2022/11/29 06:50:13;;;;;;;;;;;14.30;70.30;;;;;;5126181;28;20053;-66
2022/11/29 06:52:53;;;;;;;5.63;3.70;;;14.30;70.00;;;;;;5125517;28;19911;-67
2022/11/29 06:55:37;;;;;;;4.60;3.47;;;14.30;70.20;;;;;;5125653;28;20015;-68
2022/11/29 06:58:28;;;;;;;6.00;3.95;;;14.30;70.10;;;;;;5125648;28;20299;-68
2022/11/29 07:01:05;;;;;;;3.83;3.42;;;14.30;70.10;;;;;;5125567;28;20015;-68
2022/11/29 07:03:50;;;;;;;4.30;3.60;;;14.40;70.10;;;;;;5107192;28;20039;-68
2022/11/29 07:06:26;;;;;;;4.53;3.55;;;14.30;70.00;;;;;;5125370;28;20344;-67
2022/11/29 07:08:59;;;;;;;4.65;3.78;;;14.30;70.00;;;;;;5125575;28;20073;-69
2022/11/29 07:11:26;;;;;;;5.20;3.70;;;14.30;70.00;;;;;;5125144;28;20210;-68
2022/11/29 07:13:52;;;;;;;4.13;3.40;;;14.40;69.90;;;;;;5125218;28;20350;-68
2022/11/29 07:16:27;;;;;;;5.10;3.85;;;14.40;69.90;;;;;;5124334;28;20035;-68
2022/11/29 07:19:12;;;;;;;4.47;3.50;;;14.40;70.00;;;;;;5125154;28;20015;-68
2022/11/29 07:22:08;;;;;;;4.03;3.33;;;14.30;70.00;;;;;;5125116;28;20060;-68
2022/11/29 07:24:49;;;;;;;4.50;3.67;;;14.40;70.00;;;;;;5124995;28;20083;-68
2022/11/29 07:27:23;;;;;;;4.45;2.95;;;14.30;70.00;;;;;;5124866;28;20016;-68
2022/11/29 07:30:12;;;;;;;4.13;3.45;;;14.30;70.40;;;;;;5124894;28;20012;-68
2022/11/29 07:32:44;;;;;;;6.43;4.30;;;14.20;70.60;;;;;;5124807;28;20015;-67
2022/11/29 07:35:18;;;;;;;5.28;3.85;;;14.30;70.50;;;;;;5124869;28;20226;-68
2022/11/29 07:37:49;;;;;;;4.43;3.47;;;14.30;70.40;;;;;;5106712;28;20016;-68
2022/11/29 07:40:24;;;;;;;4.75;3.80;;;14.30;70.60;;;;;;5124764;28;20008;-68
2022/11/29 07:42:58;;;;;;;4.57;3.28;;;14.30;71.10;;;;;;5124721;28;20335;-69
2022/11/29 07:45:28;;;;;;;3.42;3.10;;;14.30;70.50;;;;;;5124724;28;20020;-68
2022/11/29 07:47:54;;;;;;;3.80;3.28;;;14.30;70.70;;;;;;5124595;28;20016;-67
2022/11/29 07:50:21;;;;;;;3.45;3.15;;;14.30;70.50;;;;;;5124525;28;20030;-67
2022/11/29 07:52:47;;;;;;;3.95;3.22;;;14.30;70.40;;;;;;5124410;28;20090;-67
2022/11/29 07:55:19;;;;;;;4.97;3.95;;;14.30;70.30;;;;;;5124423;28;20095;-67
2022/11/29 07:57:45;;;;;;;5.28;3.78;;;14.30;70.30;;;;;;5124433;28;20038;-68
2022/11/29 08:00:11;;;;;;;3.75;2.92;;;14.30;70.30;;;;;;5124332;28;20199;-68
2022/11/29 08:02:37;;;;;;;3.42;3.13;;;14.30;70.30;;;;;;5124253;28;20342;-68
2022/11/29 08:05:03;;;;;;;3.53;3.20;;;14.30;70.30;;;;;;5124214;28;20019;-67
2022/11/29 08:07:32;;;;;;;4.43;3.25;;;14.30;70.20;;;;;;5106041;28;20087;-69
2022/11/29 08:09:58;;;;;;;4.82;3.63;;;14.30;70.30;;;;;;5124122;28;20039;-67
2022/11/29 08:12:23;;;;;;;4.13;2.90;;;14.30;70.00;;;;;;5124018;28;20346;-68
2022/11/29 08:14:49;;;;;;;4.30;3.45;;;14.30;70.10;;;;;;5123947;28;20041;-68
2022/11/29 08:17:15;;;;;;;4.20;3.42;;;14.40;70.20;;;;;;5124010;28;20023;-68
2022/11/29 08:19:41;;;;;;;4.28;3.40;;;14.30;70.00;;;;;;5123921;28;20400;-69
2022/11/29 08:22:07;;;;;;;3.67;3.33;;;14.30;70.00;;;;;;5123899;28;20366;-67
2022/11/29 08:24:33;;;;;;;3.83;3.45;;;14.40;70.00;;;;;;5105618;28;20035;-68
2022/11/29 08:26:58;;;;;;;3.90;3.35;;;14.40;70.00;;;;;;5123818;28;20041;-68
2022/11/29 08:29:24;;;;;;;4.18;3.50;;;14.40;70.00;;;;;;5105595;28;20015;-68
2022/11/29 08:31:52;;;;;;;4.40;3.25;;;14.40;70.00;;;;;;5123630;28;20315;-68
2022/11/29 08:34:18;;;;;;;3.63;3.22;;;14.40;69.90;;;;;;5123666;28;20043;-67
2022/11/29 08:36:44;;;;;;;3.83;3.20;;;14.40;69.90;;;;;;5123588;28;20050;-68
2022/11/29 08:39:10;;;;;;;4.53;3.67;;;14.40;70.00;;;;;;5123542;28;20015;-68
2022/11/29 08:41:36;;;;;;;4.53;3.40;;;14.40;69.90;;;;;;5139224;27;20108;-67
2022/11/29 08:44:04;;;;;;;5.35;3.75;;;14.40;70.00;;;;;;5123474;28;20031;-67
2022/11/29 08:49:13;;;;;;;4.25;3.50;;;14.30;70.30;;;;;;5123378;28;20433;-68
2022/11/29 08:51:39;;;;;;;4.70;3.35;;;14.30;70.50;;;;;;5123260;28;20028;-69
2022/11/29 08:54:05;;;;;;;3.83;3.05;;;14.30;70.50;;;;;;5123276;28;20019;-67
2022/11/29 08:56:31;;;;;;;4.40;3.20;;;14.30;70.70;;;;;;5105146;28;20094;-68
2022/11/29 08:58:56;;;;;;;5.90;3.90;;;14.30;70.70;;;;;;5123189;28;20042;-69
2022/11/29 09:01:22;;;;;;;5.10;3.85;;;14.30;70.70;;;;;;5123115;28;20262;-69
2022/11/29 09:04:04;;;;;;;4.07;3.33;;;14.30;70.80;;;;;;5104945;28;20055;-67
2022/11/29 09:06:33;;;;;;;3.88;3.17;;;14.20;70.60;;;;;;5123121;28;20019;-69
2022/11/29 09:08:59;;;;;;;4.53;3.60;;;14.30;70.60;;;;;;5123005;28;20026;-67
2022/11/29 09:11:27;;;;;;;3.22;2.92;;;14.30;70.60;;;;;;5122914;28;20039;-68
2022/11/29 09:13:55;;;;;;;4.57;3.38;;;14.30;70.50;;;;;;5123005;28;20024;-67
2022/11/29 09:16:24;;;;;;;4.28;3.35;;;14.30;70.40;;;;;;5122916;28;20211;-68
2022/11/29 09:18:51;;;;;;;;;;;14.30;70.40;;;;;;5123375;28;20011;-68
2022/11/29 09:21:17;;;;;;;5.00;3.78;;;14.30;70.30;;;;;;5122863;28;19906;-68
2022/11/29 09:23:44;;;;;;;6.65;4.20;;;14.30;70.40;;;;;;5122854;28;20099;-69
2022/11/29 09:26:15;;;;;;;4.50;3.55;;;14.40;70.30;;;;;;5122713;28;20088;-68
2022/11/29 09:28:41;;;;;;;3.85;3.20;;;14.40;70.20;;;;;;5122819;28;20026;-67
2022/11/29 09:31:12;;;;;;;4.85;3.80;;;14.40;70.00;;;;;;5122580;28;20046;-68
2022/11/29 09:33:39;;;;;;;4.95;3.78;;;14.40;70.00;;;;;;5122704;28;20011;-68
2022/11/29 09:36:06;;;;;;;4.63;3.67;;;14.40;70.10;;;;;;5122588;28;20096;-68
2022/11/29 09:38:33;;;;;;;5.35;3.95;;;14.40;70.10;;;;;;5122169;28;20207;-68
2022/11/29 09:41:19;;;;;;;3.58;3.20;;;14.40;70.00;;;;;;5122408;28;20058;-67
2022/11/29 09:44:26;;;;;;;5.57;3.90;;;14.40;70.20;;;;;;5104282;28;20015;-68
2022/11/29 09:47:02;;;;;;;4.78;3.67;;;14.50;70.00;;;;;;5082393;28;20027;-66
2022/11/29 09:50:22;;;;;;;4.40;3.17;;;14.50;70.20;;;;;;5122526;28;20015;-68
2022/11/29 09:53:00;;;;;;;6.07;3.63;;;14.50;70.20;;;;;;5039856;28;20045;-67
2022/11/29 09:55:31;;;;;;;4.15;3.17;;;14.40;70.20;;;;;;5122521;28;20112;-68
2022/11/29 09:57:59;;;;;;;4.70;3.65;;;14.40;70.20;;;;;;5122449;28;20026;-68
2022/11/29 10:00:27;;;;;;;3.50;2.97;;;14.40;70.20;;;;;;5122444;28;20016;-67
2022/11/29 10:02:59;;;;;;;3.40;2.80;;;14.40;70.30;;;;;;5122330;28;20056;-68
2022/11/29 10:05:28;;;;;;;4.80;4.00;;;14.40;70.30;;;;;;5122396;28;20015;-66
2022/11/29 10:07:57;;;;;;;3.95;3.28;;;14.40;70.40;;;;;;5122352;28;20028;-66
2022/11/29 10:10:26;;;;;;;3.97;3.08;;;14.40;70.40;;;;;;5122272;28;20020;-68
2022/11/29 10:12:58;;;;;;;3.97;3.50;;;14.40;70.40;;;;;;5122220;28;20043;-67
2022/11/29 10:15:42;;;;;;;4.05;3.28;;;14.40;70.40;;;;;;5122341;28;20622;-67
2022/11/29 10:18:22;;;;;;;4.20;3.38;;;14.50;70.30;;;;;;5104061;28;20022;-68
2022/11/29 10:20:51;;;;;;;3.80;3.03;;;14.50;70.30;;;;;;5122274;28;20037;-67
2022/11/29 10:23:35;;;;;;;4.20;3.30;;;14.40;70.30;;;;;;5122182;28;20071;-67
2022/11/29 10:26:06;;;;;;;5.18;3.55;;;14.50;70.40;;;;;;5122220;28;20082;-66
2022/11/29 10:28:34;;;;;;;4.57;2.95;;;14.50;70.50;;;;;;5122246;28;20041;-68
2022/11/29 10:31:28;;;;;;;3.85;3.47;;;14.50;70.30;;;;;;5122063;28;20222;-67
2022/11/29 10:34:00;;;;;;;3.97;2.95;;;14.50;70.30;;;;;;5108083;28;20023;-67
2022/11/29 10:36:37;;;;;;;3.13;2.83;;;14.50;70.40;;;;;;5122193;28;20091;-69
2022/11/29 10:39:25;;;;;;;3.95;3.00;;;14.40;70.30;;;;;;5104041;28;20020;-68
2022/11/29 10:41:55;;;;;;;4.15;3.40;;;14.50;70.40;;;;;;5080391;28;20040;-68
2022/11/29 10:44:22;;;;;;;4.05;3.25;;;14.50;70.40;;;;;;5122399;28;20034;-67
2022/11/29 10:46:48;;;;;;;4.00;3.33;;;14.40;70.30;;;;;;5121997;28;20020;-68
2022/11/29 10:49:17;;;;;;;4.88;3.70;;;14.50;70.30;;;;;;5122028;28;20024;-68
2022/11/29 10:51:44;;;;;;;;;;;14.50;70.30;;;;;;5124088;28;20180;-67
2022/11/29 10:54:21;;;;;;;4.13;3.22;;;14.50;70.30;;;;;;5125678;28;19900;-69
2022/11/29 10:56:48;;;;;;;3.40;2.83;;;14.50;70.50;;;;;;5125641;28;20074;-68
2022/11/29 10:59:25;;;;;;;4.47;3.60;;;14.50;70.40;;;;;;5125564;28;20315;-68
2022/11/29 11:01:52;;;;;;;3.05;2.65;;;14.50;70.20;;;;;;5125543;28;20036;-69
2022/11/29 11:04:28;;;;;;;3.80;2.97;;;14.50;70.30;;;;;;5125493;28;20023;-68
2022/11/29 11:07:01;;;;;;;3.40;3.10;;;14.50;70.20;;;;;;5125456;28;20027;-68
2022/11/29 11:09:29;;;;;;;3.47;3.05;;;14.50;70.30;;;;;;5125212;28;20307;-66
2022/11/29 11:12:00;;;;;;;4.37;2.97;;;14.50;70.30;;;;;;5125240;28;20237;-68
2022/11/29 11:14:28;;;;;;;3.92;3.35;;;14.50;70.30;;;;;;5125229;28;20248;-66
2022/11/29 11:16:54;;;;;;;3.83;3.28;;;14.50;70.20;;;;;;5125294;28;20230;-68
2022/11/29 11:19:33;;;;;;;4.95;3.03;;;14.50;70.10;;;;;;5125219;28;20039;-68
2022/11/29 11:22:03;;;;;;;3.20;2.65;;;14.50;70.10;;;;;;5125151;28;20073;-68
2022/11/29 11:24:40;;;;;;;3.72;2.85;;;14.50;70.10;;;;;;5125104;28;20203;-68
2022/11/29 11:27:06;;;;;;;3.47;2.90;;;14.50;70.00;;;;;;5125009;28;20335;-66
2022/11/29 11:29:39;;;;;;;3.63;3.33;;;14.50;70.10;;;;;;5125020;28;20092;-68
2022/11/29 11:32:15;;;;;;;3.45;3.00;;;14.50;70.10;;;;;;5124905;28;20020;-68
2022/11/29 11:34:56;;;;;;;3.85;2.90;;;14.50;70.20;;;;;;5124864;28;20018;-68
2022/11/29 11:37:31;;;;;;;4.75;3.08;;;14.50;70.20;;;;;;5124915;28;20024;-68
2022/11/29 11:40:19;;;;;;;3.75;3.30;;;14.50;70.20;;;;;;5124638;28;20189;-67
2022/11/29 11:42:45;;;;;;;4.63;3.30;;;14.50;70.10;;;;;;5124665;28;20045;-67
2022/11/29 11:45:11;;;;;;;4.00;3.20;;;14.50;70.20;;;;;;5124658;28;20216;-68
2022/11/29 11:47:50;;;;;;;4.57;3.40;;;14.50;70.20;;;;;;5124625;28;20100;-68
2022/11/29 11:50:53;;;;;;;3.15;2.80;;;14.50;70.20;;;;;;5124592;28;20024;-68
2022/11/29 11:53:36;;;;;;;3.63;3.00;;;14.50;70.10;;;;;;5123901;28;20031;-67
2022/11/29 11:56:09;;;;;;;4.78;3.53;;;14.50;70.20;;;;;;5124496;28;20019;-67
2022/11/29 11:58:55;;;;;;;3.88;3.17;;;14.50;70.20;;;;;;5124443;28;20054;-68
2022/11/29 12:01:36;;;;;;;4.03;3.17;;;14.50;69.90;;;;;;5124342;28;20104;-68
2022/11/29 12:04:10;;;;;;;4.05;3.13;;;14.50;70.00;;;;;;5124388;28;20355;-68
2022/11/29 12:06:51;;;;;;;3.67;2.97;;;14.50;70.10;;;;;;5124332;28;20027;-69
2022/11/29 12:09:29;;;;;;;3.97;3.33;;;14.50;69.90;;;;;;5124249;28;20086;-67
2022/11/29 12:12:01;;;;;;;4.70;3.40;;;14.50;69.90;;;;;;5124161;28;20027;-68
2022/11/29 12:14:57;;;;;;;3.97;3.22;;;14.50;70.00;;;;;;5124228;28;20042;-68
2022/11/29 12:17:35;;;;;;;3.80;3.22;;;14.50;69.80;;;;;;5124107;28;20084;-67
2022/11/29 12:20:13;;;;;;;3.38;3.08;;;14.50;69.80;;;;;;5124145;28;20016;-67
2022/11/29 12:23:03;;;;;;;3.70;3.20;;;14.60;69.80;;;;;;5124002;28;20307;-67
2022/11/29 12:25:37;;;;;;;3.40;3.10;;;14.50;69.70;;;;;;5123183;28;20039;-68
2022/11/29 12:28:08;;;;;;;3.80;3.05;;;14.60;69.70;;;;;;5105588;28;20219;-67
2022/11/29 12:30:34;;;;;;;3.45;2.97;;;14.60;69.70;;;;;;5123871;28;20015;-68
2022/11/29 12:33:19;;;;;;;4.47;3.20;;;14.60;69.70;;;;;;5123721;28;20020;-68
2022/11/29 12:36:06;;;;;;;3.78;2.90;;;14.60;69.50;;;;;;5123772;28;20019;-67
2022/11/29 12:38:43;;;;;;;3.85;3.22;;;14.60;69.60;;;;;;5123669;28;20019;-68
2022/11/29 12:41:24;;;;;;;3.72;3.28;;;14.60;69.50;;;;;;5123494;28;20039;-67
2022/11/29 12:44:15;;;;;;;3.88;2.90;;;14.60;69.40;;;;;;5123574;28;20038;-67
2022/11/29 12:46:52;;;;;;;4.03;3.20;;;14.60;69.40;;;;;;5123551;28;20018;-67
2022/11/29 12:49:29;;;;;;;4.45;3.20;;;14.60;69.40;;;;;;5123595;28;20311;-68
2022/11/29 12:52:13;;;;;;;4.90;3.77;;;14.70;69.40;;;;;;5123511;28;20047;-68
2022/11/29 12:55:07;;;;;;;4.03;2.83;;;14.70;69.30;;;;;;5123399;28;20039;-68
2022/11/29 12:57:33;;;;;;;4.47;3.08;;;14.80;69.20;;;;;;5123383;28;20046;-68
2022/11/29 13:00:04;;;;;;;4.50;3.47;;;14.80;68.90;;;;;;5123298;28;20266;-67
2022/11/29 13:02:33;;;;;;;3.50;2.83;;;14.90;68.70;;;;;;5123331;28;20022;-67
2022/11/29 13:05:17;;;;;;;6.00;3.22;;;14.90;68.40;;;;;;5123259;28;20087;-67
2022/11/29 13:08:02;;;;;;;4.10;3.00;;;15.00;68.30;;;;;;5104994;28;20247;-67
2022/11/29 13:10:47;;;;;;;3.63;2.60;;;15.00;68.10;;;;;;5123157;28;20056;-68
2022/11/29 13:13:28;;;;;;;3.17;2.70;;;15.00;68.20;;;;;;5122734;28;20061;-68
2022/11/29 13:16:09;;;;;;;4.20;3.40;;;14.90;68.30;;;;;;5122937;28;20086;-68
2022/11/29 13:18:52;;;;;;;3.92;3.03;;;14.90;68.40;;;;;;5122999;28;20071;-68
2022/11/29 13:21:39;;;;;;;3.83;3.13;;;15.10;68.10;;;;;;5122938;28;20015;-69
2022/11/29 13:24:29;;;;;;;3.90;2.97;;;15.30;67.20;;;;;;5123006;28;20060;-68
2022/11/29 13:26:56;;;;;;;3.72;3.38;;;15.30;67.20;;;;;;5122888;28;20042;-68
2022/11/29 13:29:24;;;;;;;3.78;3.08;;;15.20;67.50;;;;;;5104565;28;20011;-68
2022/11/29 13:31:51;;;;;;;3.90;3.00;;;15.10;67.90;;;;;;5122704;28;20082;-67
2022/11/29 13:34:25;;;;;;;3.22;2.92;;;15.10;67.90;;;;;;5122356;28;20019;-67
2022/11/29 13:37:06;;;;;;;4.28;3.33;;;15.10;67.90;;;;;;5122750;28;20319;-67
2022/11/29 13:39:54;;;;;;;3.38;3.00;;;15.00;67.90;;;;;;5122708;28;20022;-68